createdAt,value
2022-08-18T00:00:49.747Z,0.00
2022-08-18T00:05:48.650Z,0.00
2022-08-18T00:10:48.488Z,0.00
2022-08-18T00:15:49.024Z,0.00
2022-08-18T00:20:48.370Z,0.00
2022-08-18T00:25:48.321Z,0.00
2022-08-18T00:30:48.271Z,0.00
2022-08-18T00:35:49.209Z,0.00
2022-08-18T00:40:48.158Z,0.00
2022-08-18T00:45:48.180Z,0.00
2022-08-18T00:50:48.049Z,0.00
2022-08-18T00:55:54.259Z,0.00
2022-08-18T01:00:49.022Z,0.00
2022-08-18T01:05:48.047Z,0.00
2022-08-18T01:10:47.807Z,0.00
2022-08-18T01:15:49.845Z,0.00
2022-08-18T01:20:47.696Z,0.00
2022-08-18T01:25:47.667Z,0.00
2022-08-18T01:30:47.725Z,0.00
2022-08-18T01:35:47.669Z,0.00
2022-08-18T01:41:22.675Z,0.00
2022-08-18T01:45:48.448Z,0.00
2022-08-18T01:50:47.375Z,0.00
2022-08-18T01:55:47.315Z,0.00
2022-08-18T02:00:47.310Z,0.00
2022-08-18T02:05:47.608Z,0.00
2022-08-18T02:10:47.298Z,0.00
2022-08-18T02:15:47.118Z,0.00
2022-08-18T02:20:47.137Z,0.00
2022-08-18T02:26:57.377Z,0.00
2022-08-18T02:31:57.393Z,0.00
2022-08-18T02:36:57.241Z,0.00
2022-08-18T02:41:57.292Z,0.00
2022-08-18T02:46:57.209Z,0.00
2022-08-18T02:51:57.072Z,0.00
2022-08-18T02:56:57.008Z,0.00
2022-08-18T03:01:57.082Z,0.00
2022-08-18T03:06:57.089Z,0.00
2022-08-18T03:11:56.864Z,0.00
2022-08-18T03:16:56.807Z,0.00
2022-08-18T03:21:58.206Z,0.00
2022-08-18T03:26:56.751Z,0.00
2022-08-18T03:31:56.628Z,0.00
2022-08-18T03:36:56.592Z,0.00
2022-08-18T03:41:58.001Z,0.00
2022-08-18T03:46:56.474Z,0.00
2022-08-18T03:51:56.541Z,0.00
2022-08-18T03:56:56.459Z,0.00
2022-08-18T04:01:56.450Z,0.00
2022-08-18T04:06:56.262Z,0.00
2022-08-18T04:11:56.293Z,0.00
2022-08-18T04:16:56.153Z,0.00
2022-08-18T04:21:56.121Z,0.00
2022-08-18T04:26:56.040Z,5.62
2022-08-18T04:31:55.992Z,11.25
2022-08-18T04:36:55.952Z,11.25
2022-08-18T04:41:55.879Z,16.88
2022-08-18T04:46:55.820Z,16.88
2022-08-18T04:52:36.775Z,22.50
2022-08-18T04:56:56.724Z,33.75
2022-08-18T05:01:55.674Z,45.00
2022-08-18T05:06:55.603Z,50.62
2022-08-18T05:11:55.540Z,45.00
2022-08-18T05:16:55.599Z,56.25
2022-08-18T05:21:59.627Z,67.50
2022-08-18T05:26:56.377Z,78.75
2022-08-18T05:31:55.340Z,73.12
2022-08-18T05:36:55.359Z,78.75
2022-08-18T05:41:55.218Z,78.75
2022-08-18T05:46:55.173Z,112.50
2022-08-18T05:51:55.417Z,146.25
2022-08-18T05:56:55.357Z,191.25
2022-08-18T06:01:55.197Z,292.50
2022-08-18T06:06:56.129Z,309.38
2022-08-18T06:11:55.081Z,427.50
2022-08-18T06:16:55.978Z,405.00
2022-08-18T06:21:54.847Z,303.75
2022-08-18T06:26:54.828Z,213.75
2022-08-18T06:31:54.762Z,163.12
2022-08-18T06:36:54.708Z,196.88
2022-08-18T06:41:54.711Z,168.75
2022-08-18T06:46:54.701Z,123.75
2022-08-18T06:51:54.549Z,146.25
2022-08-18T06:56:54.533Z,118.12
2022-08-18T07:01:55.397Z,78.75
2022-08-18T07:06:54.341Z,101.25
2022-08-18T07:11:54.344Z,78.75
2022-08-18T07:16:58.821Z,112.50
2022-08-18T07:21:55.153Z,123.75
2022-08-18T07:26:54.150Z,146.25
2022-08-18T07:31:54.118Z,230.62
2022-08-18T07:36:54.000Z,360.00
2022-08-18T07:41:53.959Z,376.88
2022-08-18T07:46:53.898Z,483.75
2022-08-18T07:51:53.857Z,410.62
2022-08-18T07:56:53.796Z,343.12
2022-08-18T08:01:53.956Z,382.50
2022-08-18T08:07:20.727Z,388.12
2022-08-18T08:11:54.628Z,466.88
2022-08-18T08:16:53.578Z,1001.25
2022-08-18T08:21:53.493Z,1411.88
2022-08-18T08:26:53.439Z,1653.75
2022-08-18T08:31:53.385Z,1451.25
2022-08-18T08:36:53.341Z,1237.50
2022-08-18T08:41:53.272Z,1423.12
2022-08-18T08:46:54.233Z,995.62
2022-08-18T08:51:53.177Z,900.00
2022-08-18T08:57:01.956Z,984.38
2022-08-18T09:01:53.090Z,714.38
2022-08-18T09:06:52.996Z,736.88
2022-08-18T09:11:52.940Z,1102.50
2022-08-18T09:16:52.901Z,1170.00
2022-08-18T09:21:52.831Z,1136.25
2022-08-18T09:26:52.785Z,1265.62
2022-08-18T09:31:52.745Z,1501.88
2022-08-18T09:36:52.683Z,1456.88
2022-08-18T09:41:52.637Z,1440.00
2022-08-18T09:46:52.646Z,1231.88
2022-08-18T09:51:52.567Z,1721.25
2022-08-18T09:56:53.493Z,1591.88
2022-08-18T10:01:52.863Z,1209.38
2022-08-18T10:06:52.370Z,1456.88
2022-08-18T10:11:52.408Z,1698.75
2022-08-18T10:17:15.908Z,1687.50
2022-08-18T10:21:53.723Z,1310.62
2022-08-18T10:26:55.011Z,1243.12
2022-08-18T10:31:54.178Z,1282.50
2022-08-18T10:36:52.058Z,1192.50
2022-08-18T10:41:54.229Z,1282.50
2022-08-18T10:46:51.957Z,1800.00
2022-08-18T10:51:59.615Z,2070.00
2022-08-18T10:56:52.857Z,1659.38
2022-08-18T11:01:51.802Z,1254.38
2022-08-18T11:06:51.751Z,1293.75
2022-08-18T11:11:55.842Z,1530.00
2022-08-18T11:16:54.062Z,2036.25
2022-08-18T11:21:52.054Z,2694.38
2022-08-18T11:26:53.185Z,2413.12
2022-08-18T11:31:52.525Z,1856.25
2022-08-18T11:36:51.523Z,1608.75
2022-08-18T11:41:51.490Z,1822.50
2022-08-18T11:46:52.077Z,2109.38
2022-08-18T11:51:51.291Z,1265.62
2022-08-18T11:56:51.230Z,1102.50
2022-08-18T12:01:51.352Z,978.75
2022-08-18T12:06:51.134Z,961.88
2022-08-18T12:11:51.085Z,1175.62
2022-08-18T12:16:51.014Z,1333.12
2022-08-18T12:21:50.977Z,1496.25
2022-08-18T12:31:51.855Z,1676.25
2022-08-18T12:36:50.886Z,1563.75
2022-08-18T12:41:50.768Z,1659.38
2022-08-18T12:46:50.787Z,1935.00
2022-08-18T12:51:50.756Z,3318.75
2022-08-18T12:56:50.681Z,4573.12
2022-08-18T13:01:50.542Z,2368.12
2022-08-18T13:07:00.457Z,2199.38
2022-08-18T13:11:51.454Z,2053.12
2022-08-18T13:16:54.047Z,3341.25
2022-08-18T13:21:50.347Z,2143.12
2022-08-18T13:26:51.655Z,2716.88
2022-08-18T13:31:55.798Z,3459.38
2022-08-18T13:36:51.416Z,2936.25
2022-08-18T13:41:50.214Z,3065.62
2022-08-18T13:46:50.101Z,2700.00
2022-08-18T13:51:50.083Z,2295.00
2022-08-18T13:56:51.643Z,2086.88
2022-08-18T14:01:52.426Z,2002.50
2022-08-18T14:06:56.247Z,2053.12
2022-08-18T14:11:51.178Z,2109.38
2022-08-18T14:16:50.791Z,2047.50
2022-08-18T14:21:49.792Z,1929.38
2022-08-18T14:26:50.030Z,1822.50
2022-08-18T14:31:49.746Z,2002.50
2022-08-18T14:36:49.653Z,1850.62
2022-08-18T14:41:55.929Z,1856.25
2022-08-18T14:46:54.031Z,2002.50
2022-08-18T14:51:49.466Z,1861.88
2022-08-18T14:56:49.417Z,1822.50
2022-08-18T15:01:58.219Z,1923.75
2022-08-18T15:06:55.763Z,1704.38
2022-08-18T15:11:50.358Z,1096.88
2022-08-18T15:16:49.290Z,1006.88
2022-08-18T15:21:50.326Z,1091.25
2022-08-18T15:26:51.569Z,956.25
2022-08-18T15:31:49.932Z,956.25
2022-08-18T15:36:49.101Z,922.50
2022-08-18T15:41:49.014Z,939.38
2022-08-18T15:46:53.002Z,1029.38
2022-08-18T15:51:48.881Z,1018.12
2022-08-18T15:56:58.236Z,916.88
2022-08-18T16:01:50.202Z,978.75
2022-08-18T16:06:48.811Z,871.88
2022-08-18T16:11:48.656Z,855.00
2022-08-18T16:16:48.598Z,793.12
2022-08-18T16:21:48.561Z,725.62
2022-08-18T16:26:48.516Z,708.75
2022-08-18T16:31:48.504Z,624.38
2022-08-18T16:36:48.529Z,596.25
2022-08-18T16:41:48.346Z,607.50
2022-08-18T16:46:48.289Z,641.25
2022-08-18T16:51:48.433Z,658.12
2022-08-18T16:56:48.197Z,658.12
2022-08-18T17:01:49.431Z,669.38
2022-08-18T17:06:48.186Z,641.25
2022-08-18T17:11:51.440Z,613.12
2022-08-18T17:16:48.007Z,562.50
2022-08-18T17:21:47.967Z,517.50
2022-08-18T17:26:49.490Z,478.12
2022-08-18T17:31:47.814Z,444.38
2022-08-18T17:36:52.617Z,388.12
2022-08-18T17:41:48.716Z,343.12
2022-08-18T17:46:47.646Z,303.75
2022-08-18T17:51:52.501Z,225.00
2022-08-18T17:56:48.535Z,140.62
2022-08-18T18:01:47.507Z,123.75
2022-08-18T18:06:49.391Z,123.75
2022-08-18T18:11:47.590Z,95.62
2022-08-18T18:16:47.542Z,67.50
2022-08-18T18:21:58.873Z,78.75
2022-08-18T18:26:48.324Z,78.75
2022-08-18T18:31:47.175Z,61.88
2022-08-18T18:36:47.135Z,50.62
2022-08-18T18:41:47.064Z,33.75
2022-08-18T18:46:47.020Z,22.50
2022-08-18T18:51:47.019Z,11.25
2022-08-18T18:56:46.897Z,11.25
2022-08-18T19:01:46.936Z,0.00
2022-08-18T19:06:46.915Z,0.00
2022-08-18T19:11:46.873Z,0.00
2022-08-18T19:16:46.811Z,0.00
2022-08-18T19:22:03.430Z,0.00
2022-08-18T19:26:47.571Z,0.00
2022-08-18T19:31:46.533Z,0.00
2022-08-18T19:36:46.460Z,0.00
2022-08-18T19:41:46.418Z,0.00
2022-08-18T19:46:46.360Z,0.00
2022-08-18T19:51:46.399Z,0.00
2022-08-18T19:56:46.324Z,0.00
2022-08-18T20:01:46.213Z,0.00
2022-08-18T20:06:46.329Z,0.00
2022-08-18T20:11:46.256Z,0.00
2022-08-18T20:16:46.196Z,0.00
2022-08-18T20:21:45.980Z,0.00
2022-08-18T20:26:45.937Z,0.00
2022-08-18T20:31:45.873Z,0.00
2022-08-18T20:36:45.811Z,0.00
2022-08-18T20:41:45.775Z,0.00
2022-08-18T20:46:45.717Z,0.00
2022-08-18T20:51:52.393Z,0.00
2022-08-18T20:56:46.730Z,0.00
2022-08-18T21:01:45.658Z,0.00
2022-08-18T21:06:45.529Z,0.00
2022-08-18T21:11:45.525Z,0.00
2022-08-18T21:16:45.468Z,0.00
2022-08-18T21:21:52.394Z,0.00
2022-08-18T21:26:45.280Z,0.00
2022-08-18T21:31:45.485Z,0.00
2022-08-18T21:36:45.207Z,0.00
2022-08-18T21:41:45.117Z,0.00
2022-08-18T21:46:45.052Z,0.00
2022-08-18T21:51:44.997Z,0.00
2022-08-18T21:56:44.955Z,0.00
2022-08-18T22:01:44.889Z,0.00
2022-08-18T22:06:44.837Z,0.00
2022-08-18T22:12:00.623Z,0.00
2022-08-18T22:16:45.754Z,0.00
2022-08-18T22:21:45.724Z,0.00
2022-08-18T22:26:44.745Z,0.00
2022-08-18T22:31:44.705Z,0.00
2022-08-18T22:36:44.503Z,0.00
2022-08-18T22:41:44.455Z,0.00
2022-08-18T22:46:44.496Z,0.00
2022-08-18T22:51:44.358Z,0.00
2022-08-18T22:56:55.177Z,0.00
2022-08-18T23:01:45.379Z,0.00
2022-08-18T23:06:45.311Z,0.00
2022-08-18T23:11:44.128Z,0.00
2022-08-18T23:16:44.065Z,0.00
2022-08-18T23:21:44.028Z,0.00
2022-08-18T23:26:43.981Z,0.00
2022-08-18T23:31:43.918Z,0.00
2022-08-18T23:36:46.035Z,0.00
2022-08-18T23:41:43.798Z,0.00
2022-08-18T23:46:43.748Z,0.00
2022-08-18T23:51:43.838Z,0.00
2022-08-18T23:56:43.766Z,0.00
